createdAt,value
2018-07-10T00:00:06.061Z,18.94
2018-07-10T00:01:06.112Z,18.94
2018-07-10T00:02:05.544Z,18.94
2018-07-10T00:03:11.306Z,18.94
2018-07-10T00:04:06.501Z,18.94
2018-07-10T00:05:06.490Z,18.88
2018-07-10T00:06:06.111Z,18.88
2018-07-10T00:07:05.689Z,18.88
2018-07-10T00:08:07.426Z,18.88
2018-07-10T00:09:06.436Z,18.88
2018-07-10T00:10:06.089Z,18.88
2018-07-10T00:11:05.943Z,18.88
2018-07-10T00:12:06.459Z,18.88
2018-07-10T00:13:11.379Z,18.88
2018-07-10T00:14:05.849Z,18.88
2018-07-10T00:15:05.718Z,18.88
2018-07-10T00:16:05.797Z,18.88
2018-07-10T00:17:06.412Z,18.88
2018-07-10T00:18:06.268Z,18.88
2018-07-10T00:19:06.215Z,18.88
2018-07-10T00:20:05.922Z,18.88
2018-07-10T00:21:05.622Z,18.88
2018-07-10T00:22:11.353Z,18.88
2018-07-10T00:23:11.413Z,18.88
2018-07-10T00:24:05.690Z,18.88
2018-07-10T00:25:06.482Z,18.88
2018-07-10T00:26:06.135Z,18.88
2018-07-10T00:27:06.431Z,18.88
2018-07-10T00:28:06.329Z,18.88
2018-07-10T00:29:06.985Z,18.88
2018-07-10T00:30:05.546Z,18.88
2018-07-10T00:31:06.522Z,18.88
2018-07-10T00:32:05.896Z,18.88
2018-07-10T00:33:06.175Z,18.88
2018-07-10T00:34:10.651Z,18.94
2018-07-10T00:35:06.324Z,18.88
2018-07-10T00:36:06.252Z,18.94
2018-07-10T00:37:06.330Z,18.94
2018-07-10T00:38:05.688Z,18.94
2018-07-10T00:39:05.772Z,18.94
2018-07-10T00:40:05.615Z,18.94
2018-07-10T00:41:05.846Z,18.94
2018-07-10T00:42:05.647Z,18.94
2018-07-10T00:43:06.292Z,18.94
2018-07-10T00:44:05.787Z,18.94
2018-07-10T00:45:06.185Z,18.94
2018-07-10T00:46:05.452Z,18.94
2018-07-10T00:47:05.916Z,18.94
2018-07-10T00:48:05.613Z,18.94
2018-07-10T00:49:06.336Z,18.94
2018-07-10T00:50:06.028Z,18.94
2018-07-10T00:51:06.876Z,18.94
2018-07-10T00:52:06.266Z,18.94
2018-07-10T00:53:05.616Z,18.94
2018-07-10T00:54:06.238Z,18.94
2018-07-10T00:55:10.953Z,19.00
2018-07-10T00:56:05.970Z,18.94
2018-07-10T00:57:05.534Z,19.00
2018-07-10T00:58:05.580Z,18.94
2018-07-10T00:59:06.223Z,18.94
2018-07-10T01:00:05.876Z,18.94
2018-07-10T01:01:06.249Z,18.94
2018-07-10T01:02:05.702Z,18.94
2018-07-10T01:03:05.652Z,18.94
2018-07-10T01:04:06.039Z,18.94
2018-07-10T01:05:05.627Z,18.94
2018-07-10T01:06:05.550Z,18.94
2018-07-10T01:07:06.040Z,18.94
2018-07-10T01:08:05.688Z,18.94
2018-07-10T01:09:06.101Z,18.94
2018-07-10T01:10:10.539Z,18.94
2018-07-10T01:11:06.333Z,18.94
2018-07-10T01:12:05.856Z,18.88
2018-07-10T01:13:06.341Z,18.88
2018-07-10T01:14:05.856Z,18.88
2018-07-10T01:15:05.449Z,18.88
2018-07-10T01:16:06.415Z,18.88
2018-07-10T01:17:11.372Z,18.88
2018-07-10T01:18:05.934Z,18.81
2018-07-10T01:19:06.343Z,18.81
2018-07-10T01:20:05.786Z,18.81
2018-07-10T01:21:05.772Z,18.81
2018-07-10T01:22:06.173Z,18.81
2018-07-10T01:23:06.018Z,18.81
2018-07-10T01:24:05.613Z,18.75
2018-07-10T01:25:05.634Z,18.75
2018-07-10T01:26:06.652Z,18.75
2018-07-10T01:27:06.023Z,18.75
2018-07-10T01:28:05.868Z,18.75
2018-07-10T01:29:06.275Z,18.69
2018-07-10T01:30:05.584Z,18.69
2018-07-10T01:31:10.879Z,18.69
2018-07-10T01:32:05.477Z,18.69
2018-07-10T01:33:06.344Z,18.69
2018-07-10T01:34:06.371Z,18.69
2018-07-10T01:35:06.080Z,18.69
2018-07-10T01:36:06.567Z,18.62
2018-07-10T01:37:06.102Z,18.62
2018-07-10T01:38:05.772Z,18.62
2018-07-10T01:39:06.072Z,18.62
2018-07-10T01:40:05.942Z,18.56
2018-07-10T01:41:06.100Z,18.56
2018-07-10T01:42:05.843Z,18.56
2018-07-10T01:43:06.256Z,18.56
2018-07-10T01:44:05.895Z,18.56
2018-07-10T01:45:11.339Z,18.56
2018-07-10T01:46:05.945Z,18.50
2018-07-10T01:47:10.552Z,18.50
2018-07-10T01:48:05.858Z,18.50
2018-07-10T01:49:05.455Z,18.50
2018-07-10T01:50:05.939Z,18.50
2018-07-10T01:51:06.411Z,18.50
2018-07-10T01:52:05.769Z,18.50
2018-07-10T01:53:05.926Z,18.50
2018-07-10T01:54:06.431Z,18.50
2018-07-10T01:55:05.790Z,18.50
2018-07-10T01:56:11.542Z,18.44
2018-07-10T01:57:06.122Z,18.44
2018-07-10T01:58:10.781Z,18.44
2018-07-10T01:59:05.535Z,18.44
2018-07-10T02:00:05.566Z,18.38
2018-07-10T02:01:11.121Z,18.38
2018-07-10T02:02:05.694Z,18.44
2018-07-10T02:03:11.355Z,18.38
2018-07-10T02:04:05.761Z,18.38
2018-07-10T02:05:05.610Z,18.38
2018-07-10T02:06:06.177Z,18.38
2018-07-10T02:07:10.740Z,18.38
2018-07-10T02:08:06.351Z,18.38
2018-07-10T02:09:06.172Z,18.38
2018-07-10T02:10:06.267Z,18.38
2018-07-10T02:11:05.546Z,18.31
2018-07-10T02:12:06.451Z,18.31
2018-07-10T02:13:05.788Z,18.31
2018-07-10T02:14:05.713Z,18.31
2018-07-10T02:15:06.427Z,18.31
2018-07-10T02:16:06.097Z,18.25
2018-07-10T02:17:05.828Z,18.31
2018-07-10T02:18:05.377Z,18.25
2018-07-10T02:19:07.467Z,18.25
2018-07-10T02:20:05.773Z,18.25
2018-07-10T02:21:05.701Z,18.25
2018-07-10T02:22:05.610Z,18.25
2018-07-10T02:23:06.186Z,18.25
2018-07-10T02:24:05.812Z,18.25
2018-07-10T02:25:05.409Z,18.25
2018-07-10T02:26:05.943Z,18.25
2018-07-10T02:27:10.954Z,18.19
2018-07-10T02:28:11.035Z,18.19
2018-07-10T02:29:05.638Z,18.19
2018-07-10T02:30:05.857Z,18.19
2018-07-10T02:31:05.717Z,18.19
2018-07-10T02:32:05.611Z,18.19
2018-07-10T02:33:06.261Z,18.19
2018-07-10T02:34:06.248Z,18.19
2018-07-10T02:35:06.032Z,18.12
2018-07-10T02:36:06.014Z,18.12
2018-07-10T02:37:06.254Z,18.12
2018-07-10T02:38:05.922Z,18.12
2018-07-10T02:39:05.695Z,18.12
2018-07-10T02:40:05.957Z,18.12
2018-07-10T02:41:06.305Z,18.12
2018-07-10T02:42:05.901Z,18.12
2018-07-10T02:43:05.781Z,18.06
2018-07-10T02:44:05.776Z,18.06
2018-07-10T02:45:06.434Z,18.06
2018-07-10T02:46:05.542Z,18.06
2018-07-10T02:47:06.447Z,18.06
2018-07-10T02:48:06.346Z,18.06
2018-07-10T02:49:11.375Z,18.06
2018-07-10T02:50:05.975Z,18.06
2018-07-10T02:51:06.938Z,18.06
2018-07-10T02:52:06.190Z,18.00
2018-07-10T02:53:05.859Z,18.00
2018-07-10T02:54:06.327Z,18.00
2018-07-10T02:55:06.475Z,18.00
2018-07-10T02:56:06.179Z,18.00
2018-07-10T02:57:05.546Z,18.00
2018-07-10T02:58:05.716Z,18.00
2018-07-10T02:59:05.455Z,18.00
2018-07-10T03:00:05.946Z,18.00
2018-07-10T03:01:05.826Z,18.00
2018-07-10T03:02:05.530Z,18.00
2018-07-10T03:03:06.426Z,17.94
2018-07-10T03:04:06.145Z,17.94
2018-07-10T03:05:05.545Z,17.94
2018-07-10T03:06:06.475Z,17.94
2018-07-10T03:07:06.074Z,17.94
2018-07-10T03:08:05.721Z,17.94
2018-07-10T03:09:06.013Z,17.94
2018-07-10T03:10:06.113Z,17.88
2018-07-10T03:11:06.041Z,17.94
2018-07-10T03:12:05.666Z,17.94
2018-07-10T03:13:05.541Z,17.88
2018-07-10T03:14:05.489Z,17.88
2018-07-10T03:15:05.771Z,17.88
2018-07-10T03:16:06.092Z,17.88
2018-07-10T03:17:06.341Z,17.88
2018-07-10T03:18:05.777Z,17.88
2018-07-10T03:19:06.073Z,17.88
2018-07-10T03:20:05.939Z,17.88
2018-07-10T03:21:05.775Z,17.88
2018-07-10T03:22:06.432Z,17.88
2018-07-10T03:23:06.395Z,17.88
2018-07-10T03:24:05.475Z,17.88
2018-07-10T03:25:06.563Z,17.88
2018-07-10T03:26:06.021Z,17.81
2018-07-10T03:27:10.449Z,17.81
2018-07-10T03:28:06.001Z,17.81
2018-07-10T03:29:06.275Z,17.81
2018-07-10T03:30:06.178Z,17.81
2018-07-10T03:31:10.910Z,17.81
2018-07-10T03:32:05.548Z,17.81
2018-07-10T03:33:06.481Z,17.81
2018-07-10T03:34:06.293Z,17.81
2018-07-10T03:35:05.692Z,17.81
2018-07-10T03:36:05.869Z,17.75
2018-07-10T03:37:06.332Z,17.75
2018-07-10T03:38:05.858Z,17.75
2018-07-10T03:39:10.773Z,17.75
2018-07-10T03:40:06.333Z,17.75
2018-07-10T03:41:06.410Z,17.75
2018-07-10T03:42:06.268Z,17.75
2018-07-10T03:43:05.985Z,17.75
2018-07-10T03:44:05.694Z,17.75
2018-07-10T03:45:05.626Z,17.75
2018-07-10T03:46:06.024Z,17.75
2018-07-10T03:47:05.923Z,17.75
2018-07-10T03:48:05.923Z,17.75
2018-07-10T03:49:06.161Z,17.75
2018-07-10T03:50:06.135Z,17.75
2018-07-10T03:51:05.937Z,17.75
2018-07-10T03:52:05.531Z,17.75
2018-07-10T03:53:05.616Z,17.75
2018-07-10T03:54:05.877Z,17.75
2018-07-10T03:55:06.878Z,17.75
2018-07-10T03:56:05.789Z,17.75
2018-07-10T03:57:06.024Z,17.75
2018-07-10T03:58:06.344Z,17.75
2018-07-10T03:59:05.938Z,17.75
2018-07-10T04:00:06.172Z,17.75
2018-07-10T04:01:05.695Z,17.75
2018-07-10T04:02:06.721Z,17.75
2018-07-10T04:03:07.227Z,17.75
2018-07-10T04:04:06.045Z,17.75
2018-07-10T04:05:06.765Z,17.75
2018-07-10T04:06:06.704Z,17.75
2018-07-10T04:07:05.946Z,17.75
2018-07-10T04:08:06.334Z,17.75
2018-07-10T04:09:06.460Z,17.75
2018-07-10T04:10:11.159Z,17.75
2018-07-10T04:11:05.780Z,17.75
2018-07-10T04:12:05.452Z,17.75
2018-07-10T04:13:06.645Z,17.69
2018-07-10T04:14:05.938Z,17.75
2018-07-10T04:15:05.785Z,17.75
2018-07-10T04:16:06.242Z,17.75
2018-07-10T04:17:06.014Z,17.75
2018-07-10T04:18:06.130Z,17.75
2018-07-10T04:19:06.401Z,17.69
2018-07-10T04:20:05.853Z,17.69
2018-07-10T04:21:05.527Z,17.69
2018-07-10T04:22:05.934Z,17.69
2018-07-10T04:23:06.333Z,17.75
2018-07-10T04:24:10.653Z,17.75
2018-07-10T04:25:06.824Z,17.75
2018-07-10T04:26:06.362Z,17.75
2018-07-10T04:27:06.301Z,17.75
2018-07-10T04:28:06.034Z,17.75
2018-07-10T04:29:05.629Z,17.75
2018-07-10T04:30:06.343Z,17.69
2018-07-10T04:31:05.943Z,17.75
2018-07-10T04:32:05.554Z,17.69
2018-07-10T04:33:05.939Z,17.69
2018-07-10T04:34:10.753Z,17.69
2018-07-10T04:35:06.026Z,17.69
2018-07-10T04:36:05.620Z,17.75
2018-07-10T04:37:06.630Z,17.69
2018-07-10T04:38:05.787Z,17.69
2018-07-10T04:39:05.618Z,17.69
2018-07-10T04:40:11.356Z,17.69
2018-07-10T04:41:05.845Z,17.69
2018-07-10T04:42:06.204Z,17.69
2018-07-10T04:43:05.939Z,17.69
2018-07-10T04:44:06.342Z,17.69
2018-07-10T04:45:06.128Z,17.69
2018-07-10T04:46:05.836Z,17.69
2018-07-10T04:47:06.660Z,17.69
2018-07-10T04:48:06.583Z,17.69
2018-07-10T04:49:06.703Z,17.69
2018-07-10T04:50:06.031Z,17.69
2018-07-10T04:51:10.569Z,17.69
2018-07-10T04:52:06.190Z,17.69
2018-07-10T04:53:05.779Z,17.69
2018-07-10T04:54:05.449Z,17.69
2018-07-10T04:55:11.054Z,17.69
2018-07-10T04:56:06.335Z,17.69
2018-07-10T04:57:05.829Z,17.69
2018-07-10T04:58:06.535Z,17.69
2018-07-10T04:59:05.790Z,17.69
2018-07-10T05:00:06.417Z,17.69
2018-07-10T05:01:05.784Z,17.69
2018-07-10T05:02:06.357Z,17.69
2018-07-10T05:03:10.912Z,17.69
2018-07-10T05:04:06.434Z,17.69
2018-07-10T05:05:11.095Z,17.69
2018-07-10T05:06:05.617Z,17.75
2018-07-10T05:07:16.298Z,17.75
2018-07-10T05:08:05.610Z,17.75
2018-07-10T05:09:06.177Z,17.75
2018-07-10T05:10:05.777Z,17.75
2018-07-10T05:11:06.085Z,17.75
2018-07-10T05:12:06.178Z,17.75
2018-07-10T05:13:06.397Z,17.75
2018-07-10T05:14:06.290Z,17.75
2018-07-10T05:15:05.774Z,17.75
2018-07-10T05:16:05.456Z,17.75
2018-07-10T05:17:06.021Z,17.75
2018-07-10T05:18:05.849Z,17.75
2018-07-10T05:19:06.523Z,17.75
2018-07-10T05:20:05.391Z,17.75
2018-07-10T05:21:10.845Z,17.75
2018-07-10T05:22:06.337Z,17.69
2018-07-10T05:23:05.989Z,17.75
2018-07-10T05:24:05.614Z,17.75
2018-07-10T05:25:06.475Z,17.69
2018-07-10T05:26:05.627Z,17.69
2018-07-10T05:27:05.857Z,17.69
2018-07-10T05:28:05.853Z,17.69
2018-07-10T05:29:06.306Z,17.62
2018-07-10T05:30:06.145Z,17.62
2018-07-10T05:31:06.258Z,17.56
2018-07-10T05:32:05.622Z,17.50
2018-07-10T05:33:06.094Z,17.50
2018-07-10T05:34:05.576Z,17.44
2018-07-10T05:35:05.928Z,17.44
2018-07-10T05:36:05.700Z,17.38
2018-07-10T05:37:10.625Z,17.31
2018-07-10T05:38:06.258Z,17.31
2018-07-10T05:39:06.341Z,17.25
2018-07-10T05:40:06.111Z,17.25
2018-07-10T05:41:06.221Z,17.19
2018-07-10T05:42:05.913Z,17.06
2018-07-10T05:43:05.804Z,17.00
2018-07-10T05:44:06.012Z,16.94
2018-07-10T05:45:11.470Z,16.94
2018-07-10T05:46:06.014Z,16.88
2018-07-10T05:47:06.766Z,16.81
2018-07-10T05:48:06.428Z,16.75
2018-07-10T05:49:06.024Z,16.69
2018-07-10T05:50:05.849Z,16.69
2018-07-10T05:51:06.444Z,16.62
2018-07-10T05:52:05.936Z,16.56
2018-07-10T05:53:05.937Z,16.56
2018-07-10T05:54:06.025Z,16.56
2018-07-10T05:55:05.956Z,16.56
2018-07-10T05:56:05.983Z,16.50
2018-07-10T05:57:06.274Z,16.50
2018-07-10T05:58:06.165Z,16.50
2018-07-10T05:59:06.102Z,16.50
2018-07-10T06:00:05.536Z,16.50
2018-07-10T06:01:06.341Z,16.44
2018-07-10T06:02:05.691Z,16.44
2018-07-10T06:03:05.696Z,16.44
2018-07-10T06:04:06.307Z,16.38
2018-07-10T06:05:06.121Z,16.38
2018-07-10T06:06:10.715Z,16.38
2018-07-10T06:07:10.777Z,16.31
2018-07-10T06:08:05.370Z,16.25
2018-07-10T06:09:06.357Z,16.25
2018-07-10T06:10:06.476Z,16.25
2018-07-10T06:11:05.761Z,16.25
2018-07-10T06:12:06.180Z,16.25
2018-07-10T06:13:05.704Z,16.25
2018-07-10T06:14:06.111Z,16.25
2018-07-10T06:15:06.556Z,16.19
2018-07-10T06:16:06.423Z,16.12
2018-07-10T06:17:06.056Z,16.12
2018-07-10T06:18:05.699Z,16.06
2018-07-10T06:19:06.190Z,15.94
2018-07-10T06:20:16.279Z,15.94
2018-07-10T06:21:05.779Z,15.94
2018-07-10T06:22:06.585Z,15.94
2018-07-10T06:23:10.562Z,15.94
2018-07-10T06:24:05.943Z,15.81
2018-07-10T06:25:05.763Z,15.75
2018-07-10T06:26:06.232Z,15.69
2018-07-10T06:27:06.090Z,15.62
2018-07-10T06:28:05.779Z,15.62
2018-07-10T06:29:06.345Z,15.62
2018-07-10T06:30:05.642Z,15.56
2018-07-10T06:31:05.857Z,15.56
2018-07-10T06:32:10.576Z,15.56
2018-07-10T06:33:05.782Z,15.50
2018-07-10T06:34:05.858Z,15.50
2018-07-10T06:35:06.420Z,15.50
2018-07-10T06:36:06.248Z,15.50
2018-07-10T06:37:06.435Z,15.50
2018-07-10T06:38:06.003Z,15.44
2018-07-10T06:39:05.620Z,15.44
2018-07-10T06:40:06.723Z,15.44
2018-07-10T06:41:06.738Z,15.38
2018-07-10T06:42:06.343Z,15.38
2018-07-10T06:43:06.097Z,15.38
2018-07-10T06:44:05.934Z,15.38
2018-07-10T06:45:06.336Z,15.31
2018-07-10T06:46:05.698Z,15.31
2018-07-10T06:47:05.537Z,15.25
2018-07-10T06:48:05.646Z,15.25
2018-07-10T06:49:05.938Z,15.25
2018-07-10T06:50:06.296Z,15.25
2018-07-10T06:51:05.584Z,15.19
2018-07-10T06:52:05.964Z,15.19
2018-07-10T06:53:11.070Z,15.19
2018-07-10T06:54:10.937Z,15.19
2018-07-10T06:55:05.949Z,15.19
2018-07-10T06:56:05.648Z,15.19
2018-07-10T06:57:06.245Z,15.12
2018-07-10T06:58:05.838Z,15.12
2018-07-10T06:59:05.377Z,15.12
2018-07-10T07:00:10.563Z,15.12
2018-07-10T07:01:06.182Z,15.12
2018-07-10T07:02:06.009Z,15.06
2018-07-10T07:03:05.552Z,15.12
2018-07-10T07:04:06.160Z,15.06
2018-07-10T07:05:06.255Z,15.06
2018-07-10T07:06:05.596Z,15.06
2018-07-10T07:07:05.830Z,15.06
2018-07-10T07:08:05.718Z,15.06
2018-07-10T07:09:05.776Z,15.06
2018-07-10T07:10:05.937Z,15.06
2018-07-10T07:11:06.160Z,15.06
2018-07-10T07:12:05.542Z,15.06
2018-07-10T07:13:06.008Z,15.06
2018-07-10T07:14:05.539Z,15.12
2018-07-10T07:15:06.323Z,15.12
2018-07-10T07:16:06.171Z,15.12
2018-07-10T07:17:06.101Z,15.12
2018-07-10T07:18:06.963Z,15.19
2018-07-10T07:19:05.500Z,15.19
2018-07-10T07:20:06.098Z,15.19
2018-07-10T07:21:06.016Z,15.19
2018-07-10T07:22:06.061Z,15.19
2018-07-10T07:23:07.385Z,15.25
2018-07-10T07:24:05.611Z,15.25
2018-07-10T07:25:06.152Z,15.25
2018-07-10T07:26:06.582Z,15.25
2018-07-10T07:27:06.069Z,15.25
2018-07-10T07:28:05.962Z,15.25
2018-07-10T07:29:05.779Z,15.31
2018-07-10T07:30:06.238Z,15.31
2018-07-10T07:31:06.454Z,15.31
2018-07-10T07:32:06.308Z,15.31
2018-07-10T07:33:05.610Z,15.31
2018-07-10T07:34:11.325Z,15.31
2018-07-10T07:35:06.115Z,15.31
2018-07-10T07:36:06.802Z,15.31
2018-07-10T07:37:06.210Z,15.31
2018-07-10T07:38:05.779Z,15.31
2018-07-10T07:39:10.810Z,15.31
2018-07-10T07:40:06.394Z,15.31
2018-07-10T07:41:06.500Z,15.38
2018-07-10T07:42:05.722Z,15.31
2018-07-10T07:43:06.233Z,15.31
2018-07-10T07:44:06.193Z,15.31
2018-07-10T07:45:06.019Z,15.31
2018-07-10T07:46:05.901Z,15.31
2018-07-10T07:47:10.683Z,15.38
2018-07-10T07:48:06.137Z,15.38
2018-07-10T07:49:06.329Z,15.31
2018-07-10T07:50:06.174Z,15.31
2018-07-10T07:51:06.184Z,15.31
2018-07-10T07:52:05.370Z,15.25
2018-07-10T07:53:05.900Z,15.25
2018-07-10T07:54:06.092Z,15.25
2018-07-10T07:55:05.709Z,15.19
2018-07-10T07:56:10.641Z,15.19
2018-07-10T07:57:06.376Z,15.19
2018-07-10T07:58:05.385Z,15.19
2018-07-10T07:59:06.177Z,15.19
2018-07-10T08:00:05.695Z,15.19
2018-07-10T08:01:11.195Z,15.19
2018-07-10T08:02:05.860Z,15.19
2018-07-10T08:03:06.028Z,15.19
2018-07-10T08:04:05.783Z,15.19
2018-07-10T08:05:06.179Z,15.19
2018-07-10T08:06:05.775Z,15.19
2018-07-10T08:07:10.851Z,15.19
2018-07-10T08:08:06.263Z,15.19
2018-07-10T08:09:05.870Z,15.19
2018-07-10T08:10:11.208Z,15.19
2018-07-10T08:11:05.542Z,15.19
2018-07-10T08:12:06.604Z,15.19
2018-07-10T08:13:06.152Z,15.19
2018-07-10T08:14:05.949Z,15.25
2018-07-10T08:15:06.049Z,15.25
2018-07-10T08:16:06.177Z,15.25
2018-07-10T08:17:06.656Z,15.25
2018-07-10T08:18:05.857Z,15.25
2018-07-10T08:19:06.296Z,15.25
2018-07-10T08:20:05.627Z,15.25
2018-07-10T08:21:05.857Z,15.25
2018-07-10T08:22:05.783Z,15.25
2018-07-10T08:23:06.534Z,15.31
2018-07-10T08:24:06.108Z,15.25
2018-07-10T08:25:06.270Z,15.25
2018-07-10T08:26:05.901Z,15.25
2018-07-10T08:27:06.268Z,15.25
2018-07-10T08:28:06.378Z,15.25
2018-07-10T08:29:05.555Z,15.31
2018-07-10T08:30:05.460Z,15.31
2018-07-10T08:31:05.782Z,15.31
2018-07-10T08:32:05.696Z,15.31
2018-07-10T08:33:06.260Z,15.31
2018-07-10T08:34:10.778Z,15.31
2018-07-10T08:35:06.255Z,15.38
2018-07-10T08:36:06.094Z,15.38
2018-07-10T08:37:05.736Z,15.38
2018-07-10T08:38:05.704Z,15.44
2018-07-10T08:39:06.144Z,15.44
2018-07-10T08:40:05.868Z,15.44
2018-07-10T08:41:05.783Z,15.38
2018-07-10T08:42:06.360Z,15.44
2018-07-10T08:43:06.174Z,15.44
2018-07-10T08:44:06.491Z,15.38
2018-07-10T08:45:06.252Z,15.44
2018-07-10T08:46:05.774Z,15.44
2018-07-10T08:47:05.875Z,15.44
2018-07-10T08:48:05.464Z,15.50
2018-07-10T08:49:06.020Z,15.50
2018-07-10T08:50:05.774Z,15.50
2018-07-10T08:51:06.255Z,15.50
2018-07-10T08:52:05.858Z,15.50
2018-07-10T08:53:05.843Z,15.44
2018-07-10T08:54:06.275Z,15.44
2018-07-10T08:55:06.185Z,15.50
2018-07-10T08:56:05.613Z,15.50
2018-07-10T08:57:05.477Z,15.50
2018-07-10T08:58:06.612Z,15.56
2018-07-10T08:59:05.695Z,15.56
2018-07-10T09:00:05.995Z,15.62
2018-07-10T09:01:06.088Z,15.62
2018-07-10T09:02:06.364Z,15.69
2018-07-10T09:03:05.750Z,15.69
2018-07-10T09:04:05.449Z,15.69
2018-07-10T09:05:06.167Z,15.69
2018-07-10T09:06:05.635Z,15.69
2018-07-10T09:07:05.941Z,15.75
2018-07-10T09:08:06.202Z,15.81
2018-07-10T09:09:05.771Z,15.81
2018-07-10T09:10:05.795Z,15.88
2018-07-10T09:11:05.369Z,15.88
2018-07-10T09:12:05.384Z,15.94
2018-07-10T09:13:06.431Z,15.94
2018-07-10T09:14:05.765Z,16.00
2018-07-10T09:15:05.617Z,16.00
2018-07-10T09:16:05.454Z,16.06
2018-07-10T09:17:05.846Z,16.12
2018-07-10T09:18:05.952Z,16.12
2018-07-10T09:19:05.364Z,16.19
2018-07-10T09:20:05.598Z,16.25
2018-07-10T09:21:06.439Z,16.25
2018-07-10T09:22:05.825Z,16.25
2018-07-10T09:23:10.836Z,16.31
2018-07-10T09:24:05.378Z,16.38
2018-07-10T09:25:06.536Z,16.44
2018-07-10T09:26:05.967Z,16.44
2018-07-10T09:27:06.655Z,16.50
2018-07-10T09:28:06.470Z,16.50
2018-07-10T09:29:05.860Z,16.56
2018-07-10T09:30:06.105Z,16.62
2018-07-10T09:31:06.426Z,16.62
2018-07-10T09:32:06.089Z,16.69
2018-07-10T09:33:05.900Z,16.81
2018-07-10T09:34:06.345Z,16.88
2018-07-10T09:35:06.102Z,16.94
2018-07-10T09:36:05.936Z,17.00
2018-07-10T09:37:06.249Z,17.06
2018-07-10T09:38:05.912Z,17.19
2018-07-10T09:39:05.712Z,17.25
2018-07-10T09:40:10.991Z,17.31
2018-07-10T09:41:05.622Z,17.38
2018-07-10T09:42:05.691Z,17.44
2018-07-10T09:43:05.857Z,17.50
2018-07-10T09:44:06.474Z,17.56
2018-07-10T09:45:05.778Z,17.62
2018-07-10T09:46:06.017Z,17.69
2018-07-10T09:47:05.864Z,17.75
2018-07-10T09:48:06.361Z,17.75
2018-07-10T09:49:05.615Z,17.81
2018-07-10T09:50:06.548Z,17.94
2018-07-10T09:51:05.376Z,17.94
2018-07-10T09:52:06.343Z,18.00
2018-07-10T09:53:05.859Z,18.00
2018-07-10T09:54:10.468Z,18.00
2018-07-10T09:55:06.212Z,17.94
2018-07-10T09:56:06.086Z,18.00
2018-07-10T09:57:06.430Z,18.06
2018-07-10T09:58:06.103Z,18.06
2018-07-10T09:59:05.538Z,18.12
2018-07-10T10:00:05.539Z,18.19
2018-07-10T10:01:06.562Z,18.25
2018-07-10T10:02:05.945Z,18.31
2018-07-10T10:03:05.935Z,18.38
2018-07-10T10:04:06.173Z,18.50
2018-07-10T10:05:06.188Z,18.56
2018-07-10T10:06:11.295Z,18.62
2018-07-10T10:07:10.859Z,18.62
2018-07-10T10:08:05.634Z,18.69
2018-07-10T10:09:06.265Z,18.69
2018-07-10T10:10:05.855Z,18.69
2018-07-10T10:11:11.334Z,18.69
2018-07-10T10:12:05.785Z,18.69
2018-07-10T10:13:06.408Z,18.75
2018-07-10T10:14:05.799Z,18.81
2018-07-10T10:15:06.354Z,18.81
2018-07-10T10:16:06.514Z,18.81
2018-07-10T10:17:05.841Z,18.81
2018-07-10T10:18:06.564Z,18.88
2018-07-10T10:19:06.253Z,18.94
2018-07-10T10:20:05.695Z,19.00
2018-07-10T10:21:06.015Z,19.06
2018-07-10T10:22:05.930Z,19.06
2018-07-10T10:23:05.859Z,19.19
2018-07-10T10:24:05.975Z,19.19
2018-07-10T10:25:05.523Z,19.25
2018-07-10T10:26:06.441Z,19.25
2018-07-10T10:27:06.121Z,19.38
2018-07-10T10:28:06.575Z,19.44
2018-07-10T10:29:05.856Z,19.50
2018-07-10T10:30:05.910Z,19.56
2018-07-10T10:31:05.854Z,19.62
2018-07-10T10:32:05.885Z,19.62
2018-07-10T10:33:06.939Z,19.69
2018-07-10T10:34:06.242Z,19.75
2018-07-10T10:35:06.259Z,19.81
2018-07-10T10:36:05.379Z,19.88
2018-07-10T10:37:06.466Z,19.94
2018-07-10T10:38:05.934Z,20.00
2018-07-10T10:39:06.234Z,20.00
2018-07-10T10:40:05.622Z,20.00
2018-07-10T10:41:06.038Z,20.00
2018-07-10T10:42:05.944Z,20.00
2018-07-10T10:43:06.167Z,19.94
2018-07-10T10:44:05.767Z,20.00
2018-07-10T10:45:05.470Z,20.00
2018-07-10T10:46:05.773Z,20.06
2018-07-10T10:47:05.452Z,20.06
2018-07-10T10:48:05.852Z,20.12
2018-07-10T10:49:10.531Z,20.12
2018-07-10T10:50:06.297Z,20.12
2018-07-10T10:51:05.773Z,20.12
2018-07-10T10:52:07.025Z,20.06
2018-07-10T10:53:06.343Z,20.00
2018-07-10T10:54:06.352Z,20.00
2018-07-10T10:55:05.567Z,20.06
2018-07-10T10:56:05.784Z,20.06
2018-07-10T10:57:05.865Z,20.06
2018-07-10T10:58:06.803Z,20.06
2018-07-10T10:59:10.545Z,20.06
2018-07-10T11:00:06.255Z,20.06
2018-07-10T11:01:06.104Z,20.12
2018-07-10T11:02:05.491Z,20.12
2018-07-10T11:03:06.334Z,20.12
2018-07-10T11:04:05.671Z,20.12
2018-07-10T11:05:05.697Z,20.12
2018-07-10T11:06:06.419Z,20.06
2018-07-10T11:07:05.937Z,20.06
2018-07-10T11:08:05.864Z,20.06
2018-07-10T11:09:06.490Z,20.00
2018-07-10T11:10:06.200Z,19.94
2018-07-10T11:11:06.018Z,19.88
2018-07-10T11:12:05.760Z,19.81
2018-07-10T11:13:06.451Z,19.81
2018-07-10T11:14:11.208Z,19.75
2018-07-10T11:15:05.706Z,19.75
2018-07-10T11:16:05.905Z,19.81
2018-07-10T11:17:06.014Z,19.81
2018-07-10T11:18:06.406Z,19.88
2018-07-10T11:19:06.175Z,19.88
2018-07-10T11:20:06.117Z,19.81
2018-07-10T11:21:06.185Z,19.81
2018-07-10T11:22:05.711Z,19.75
2018-07-10T11:23:06.435Z,19.81
2018-07-10T11:24:05.665Z,19.81
2018-07-10T11:25:06.172Z,19.88
2018-07-10T11:26:05.943Z,19.81
2018-07-10T11:27:05.690Z,19.81
2018-07-10T11:28:05.678Z,19.75
2018-07-10T11:29:05.476Z,19.75
2018-07-10T11:30:06.439Z,19.69
2018-07-10T11:31:11.055Z,19.69
2018-07-10T11:32:06.278Z,19.69
2018-07-10T11:33:05.461Z,19.62
2018-07-10T11:34:05.873Z,19.62
2018-07-10T11:35:05.850Z,19.69
2018-07-10T11:36:06.090Z,19.69
2018-07-10T11:37:06.070Z,19.56
2018-07-10T11:38:06.443Z,19.56
2018-07-10T11:39:10.920Z,19.62
2018-07-10T11:40:05.625Z,19.62
2018-07-10T11:41:06.509Z,19.62
2018-07-10T11:42:05.856Z,19.69
2018-07-10T11:43:05.549Z,19.69
2018-07-10T11:44:06.047Z,19.75
2018-07-10T11:45:05.889Z,19.75
2018-07-10T11:46:06.271Z,19.81
2018-07-10T11:47:05.903Z,19.81
2018-07-10T11:48:06.442Z,19.81
2018-07-10T11:49:05.624Z,19.81
2018-07-10T11:50:11.146Z,19.81
2018-07-10T11:51:05.698Z,19.75
2018-07-10T11:52:06.210Z,19.75
2018-07-10T11:53:05.757Z,19.69
2018-07-10T11:54:05.505Z,19.69
2018-07-10T11:55:05.869Z,19.69
2018-07-10T11:56:06.334Z,19.69
2018-07-10T11:57:06.342Z,19.62
2018-07-10T11:58:06.416Z,19.62
2018-07-10T11:59:06.218Z,19.69
2018-07-10T12:00:05.694Z,19.69
2018-07-10T12:01:05.642Z,19.69
2018-07-10T12:02:05.748Z,19.69
2018-07-10T12:03:06.884Z,19.62
2018-07-10T12:04:06.414Z,19.69
2018-07-10T12:05:06.668Z,19.69
2018-07-10T12:06:06.257Z,19.75
2018-07-10T12:07:06.187Z,19.75
2018-07-10T12:08:06.189Z,19.81
2018-07-10T12:09:11.128Z,19.81
2018-07-10T12:10:05.706Z,19.81
2018-07-10T12:11:05.588Z,19.88
2018-07-10T12:12:06.721Z,19.88
2018-07-10T12:13:10.589Z,19.88
2018-07-10T12:14:06.264Z,19.94
2018-07-10T12:15:06.105Z,19.94
2018-07-10T12:16:05.540Z,19.94
2018-07-10T12:17:06.267Z,19.94
2018-07-10T12:18:05.689Z,20.00
2018-07-10T12:19:05.719Z,20.00
2018-07-10T12:20:06.162Z,20.06
2018-07-10T12:21:05.873Z,20.06
2018-07-10T12:22:05.459Z,20.12
2018-07-10T12:23:06.073Z,20.19
2018-07-10T12:24:05.764Z,20.19
2018-07-10T12:25:05.691Z,20.19
2018-07-10T12:26:06.028Z,20.25
2018-07-10T12:27:05.384Z,20.31
2018-07-10T12:28:06.559Z,20.31
2018-07-10T12:29:06.425Z,20.38
2018-07-10T12:30:05.886Z,20.38
2018-07-10T12:31:06.783Z,20.44
2018-07-10T12:32:10.636Z,20.44
2018-07-10T12:33:06.182Z,20.44
2018-07-10T12:34:06.338Z,20.44
2018-07-10T12:35:06.536Z,20.44
2018-07-10T12:36:05.944Z,20.50
2018-07-10T12:37:11.224Z,20.50
2018-07-10T12:38:05.783Z,20.56
2018-07-10T12:39:05.773Z,20.62
2018-07-10T12:40:05.773Z,20.62
2018-07-10T12:41:06.435Z,20.69
2018-07-10T12:42:05.627Z,20.69
2018-07-10T12:43:06.013Z,20.75
2018-07-10T12:44:06.341Z,20.75
2018-07-10T12:45:05.452Z,20.81
2018-07-10T12:46:05.696Z,20.88
2018-07-10T12:47:05.933Z,20.88
2018-07-10T12:48:05.592Z,20.94
2018-07-10T12:49:06.178Z,20.94
2018-07-10T12:50:05.804Z,21.00
2018-07-10T12:51:05.787Z,21.06
2018-07-10T12:52:06.343Z,21.06